createdAt,value
2023-03-02T00:01:02.734Z,13.32
2023-03-02T00:03:29.922Z,12.07
2023-03-02T00:05:56.768Z,12.15
2023-03-02T00:08:23.483Z,11.88
2023-03-02T00:10:49.922Z,12.70
2023-03-02T00:13:16.442Z,12.75
2023-03-02T00:15:42.858Z,13.88
2023-03-02T00:18:09.280Z,12.27
2023-03-02T00:20:35.999Z,14.18
2023-03-02T00:23:02.517Z,13.02
2023-03-02T00:25:28.928Z,12.10
2023-03-02T00:27:55.485Z,12.23
2023-03-02T00:30:22.138Z,10.93
2023-03-02T00:32:48.704Z,11.57
2023-03-02T00:35:15.201Z,11.40
2023-03-02T00:37:41.653Z,12.18
2023-03-02T00:40:09.768Z,11.48
2023-03-02T00:42:37.085Z,10.13
2023-03-02T00:45:04.775Z,10.40
2023-03-02T00:47:33.492Z,11.20
2023-03-02T00:49:59.919Z,10.40
2023-03-02T00:52:26.533Z,10.55
2023-03-02T00:54:53.026Z,9.93
2023-03-02T00:57:19.553Z,10.18
2023-03-02T00:59:46.030Z,10.38
2023-03-02T01:02:12.505Z,11.15
2023-03-02T01:04:40.424Z,10.73
2023-03-02T01:07:10.681Z,10.65
2023-03-02T01:09:37.751Z,11.85
2023-03-02T01:12:05.547Z,10.55
2023-03-02T01:14:32.065Z,11.77
2023-03-02T01:16:58.745Z,10.25
2023-03-02T01:19:25.236Z,10.68
2023-03-02T01:21:51.659Z,11.18
2023-03-02T01:24:18.102Z,10.05
2023-03-02T01:26:44.597Z,11.98
2023-03-02T01:29:11.642Z,11.75
2023-03-02T01:31:38.955Z,11.00
2023-03-02T01:34:05.597Z,11.57
2023-03-02T01:36:32.525Z,11.05
2023-03-02T01:38:59.133Z,10.68
2023-03-02T01:41:25.702Z,11.93
2023-03-02T01:43:52.178Z,10.90
2023-03-02T01:46:28.621Z,10.80
2023-03-02T01:49:05.531Z,10.63
2023-03-02T01:51:34.141Z,10.32
2023-03-02T01:54:06.412Z,9.27
2023-03-02T01:56:36.947Z,10.07
2023-03-02T01:59:08.755Z,9.98
2023-03-02T02:01:36.566Z,9.45
2023-03-02T02:04:03.097Z,9.98
2023-03-02T02:06:39.473Z,8.40
2023-03-02T02:09:11.069Z,7.90
2023-03-02T02:11:37.604Z,7.90
2023-03-02T02:14:04.783Z,8.10
2023-03-02T02:16:32.705Z,8.52
2023-03-02T02:18:59.794Z,8.63
2023-03-02T02:21:27.757Z,8.15
2023-03-02T02:23:54.165Z,8.13
2023-03-02T02:26:22.712Z,9.48
2023-03-02T02:28:52.519Z,8.13
2023-03-02T02:31:26.821Z,7.45
2023-03-02T02:33:55.596Z,7.90
2023-03-02T02:36:24.746Z,7.80
2023-03-02T02:38:54.289Z,7.95
2023-03-02T02:41:22.563Z,8.27
2023-03-02T02:43:49.691Z,8.25
2023-03-02T02:46:16.624Z,7.93
2023-03-02T02:48:43.166Z,7.78
2023-03-02T02:51:12.949Z,7.53
2023-03-02T02:53:50.342Z,6.78
2023-03-02T02:56:17.155Z,6.88
2023-03-02T02:58:45.741Z,7.35
2023-03-02T03:01:13.992Z,7.07
2023-03-02T03:03:42.579Z,7.03
2023-03-02T03:06:13.106Z,6.97
2023-03-02T03:08:45.761Z,6.45
2023-03-02T03:11:19.467Z,6.82
2023-03-02T03:13:46.909Z,6.47
2023-03-02T03:16:16.138Z,6.65
2023-03-02T03:18:43.483Z,6.47
2023-03-02T03:21:10.016Z,6.50
2023-03-02T03:23:38.378Z,6.15
2023-03-02T03:26:05.707Z,6.47
2023-03-02T03:28:32.399Z,7.03
2023-03-02T03:30:59.014Z,5.95
2023-03-02T03:33:25.572Z,6.13
2023-03-02T03:35:52.045Z,6.78
2023-03-02T03:38:18.546Z,5.75
2023-03-02T03:40:45.069Z,5.53
2023-03-02T03:43:13.768Z,5.43
2023-03-02T03:45:40.253Z,5.35
2023-03-02T03:48:06.998Z,6.00
2023-03-02T03:50:33.472Z,5.55
2023-03-02T03:53:01.361Z,5.95
2023-03-02T03:55:30.163Z,5.13
2023-03-02T03:57:56.674Z,5.32
2023-03-02T04:00:23.348Z,4.75
2023-03-02T04:02:50.700Z,4.93
2023-03-02T04:05:17.326Z,4.38
2023-03-02T04:07:43.745Z,6.13
2023-03-02T04:10:10.571Z,4.63
2023-03-02T04:12:38.327Z,4.80
2023-03-02T04:15:06.259Z,4.53
2023-03-02T04:17:32.794Z,4.75
2023-03-02T04:19:59.584Z,5.22
2023-03-02T04:22:26.360Z,7.93
2023-03-02T04:24:53.051Z,7.60
2023-03-02T04:27:19.774Z,5.57
2023-03-02T04:29:46.460Z,5.20
2023-03-02T04:32:14.873Z,5.15
2023-03-02T04:34:41.609Z,5.13
2023-03-02T04:37:08.155Z,5.38
2023-03-02T04:39:34.606Z,5.25
2023-03-02T04:42:01.094Z,5.22
2023-03-02T04:44:27.621Z,5.15
2023-03-02T04:46:54.322Z,5.28
2023-03-02T04:49:21.174Z,6.05
2023-03-02T04:51:48.471Z,5.63
2023-03-02T04:54:16.596Z,4.70
2023-03-02T04:56:43.050Z,5.50
2023-03-02T04:59:09.514Z,5.45
2023-03-02T05:01:36.013Z,6.90
2023-03-02T05:04:03.072Z,5.85
2023-03-02T05:06:29.722Z,5.95
2023-03-02T05:08:59.818Z,6.47
2023-03-02T05:11:26.611Z,7.43
2023-03-02T05:13:54.550Z,5.95
2023-03-02T05:16:21.427Z,5.88
2023-03-02T05:18:48.036Z,6.00
2023-03-02T05:21:14.957Z,5.85
2023-03-02T05:23:42.040Z,6.10
2023-03-02T05:26:08.513Z,6.95
2023-03-02T05:28:35.151Z,6.30
2023-03-02T05:31:02.496Z,6.38
2023-03-02T05:33:29.330Z,6.07
2023-03-02T05:35:55.883Z,6.47
2023-03-02T05:38:22.773Z,6.65
2023-03-02T05:40:49.282Z,6.45
2023-03-02T05:43:18.497Z,5.90
2023-03-02T05:45:45.248Z,6.72
2023-03-02T05:48:12.789Z,7.88
2023-03-02T05:50:39.365Z,7.82
2023-03-02T05:53:06.019Z,9.00
2023-03-02T05:55:37.297Z,9.23
2023-03-02T05:58:07.393Z,8.98
2023-03-02T06:00:33.908Z,8.40
2023-03-02T06:03:00.400Z,7.90
2023-03-02T06:05:26.936Z,7.10
2023-03-02T06:07:53.848Z,7.40
2023-03-02T06:10:20.515Z,7.68
2023-03-02T06:12:47.037Z,7.15
2023-03-02T06:15:13.563Z,6.65
2023-03-02T06:17:40.167Z,7.47
2023-03-02T06:20:11.046Z,8.90
2023-03-02T06:22:41.461Z,7.67
2023-03-02T06:25:12.244Z,7.55
2023-03-02T06:27:38.969Z,8.45
2023-03-02T06:30:06.263Z,7.50
2023-03-02T06:32:34.395Z,7.70
2023-03-02T06:35:01.378Z,7.20
2023-03-02T06:37:28.649Z,8.27
2023-03-02T06:39:55.608Z,9.63
2023-03-02T06:42:22.331Z,9.63
2023-03-02T06:44:49.021Z,7.38
2023-03-02T06:47:15.541Z,7.72
2023-03-02T06:49:42.048Z,7.85
2023-03-02T06:52:08.520Z,9.05
2023-03-02T06:54:34.998Z,7.70
2023-03-02T06:57:01.422Z,8.05
2023-03-02T06:59:27.924Z,8.65
2023-03-02T07:01:54.545Z,7.68
2023-03-02T07:04:21.011Z,9.55
2023-03-02T07:06:48.012Z,8.82
2023-03-02T07:09:14.604Z,7.70
2023-03-02T07:11:41.311Z,9.27
2023-03-02T07:14:07.853Z,8.32
2023-03-02T07:16:34.972Z,8.10
2023-03-02T07:19:01.579Z,9.55
2023-03-02T07:21:28.130Z,7.85
2023-03-02T07:23:54.705Z,7.85
2023-03-02T07:26:21.177Z,9.43
2023-03-02T07:28:47.610Z,7.07
2023-03-02T07:31:14.053Z,6.57
2023-03-02T07:33:40.612Z,6.57
2023-03-02T07:36:08.054Z,6.63
2023-03-02T07:38:34.625Z,8.30
2023-03-02T07:41:01.223Z,7.65
2023-03-02T07:43:28.830Z,8.55
2023-03-02T07:45:55.315Z,7.70
2023-03-02T07:48:23.504Z,6.47
2023-03-02T07:50:50.051Z,7.13
2023-03-02T07:53:16.539Z,6.68
2023-03-02T07:55:42.993Z,7.65
2023-03-02T07:58:09.475Z,7.80
2023-03-02T08:00:36.750Z,7.95
2023-03-02T08:03:03.319Z,7.22
2023-03-02T08:05:30.405Z,6.03
2023-03-02T08:07:56.831Z,6.20
2023-03-02T08:10:23.310Z,6.25
2023-03-02T08:12:49.725Z,6.13
2023-03-02T08:15:16.250Z,5.72
2023-03-02T08:17:42.711Z,6.25
2023-03-02T08:20:09.812Z,6.10
2023-03-02T08:22:36.556Z,7.03
2023-03-02T08:25:03.509Z,8.00
2023-03-02T08:27:29.933Z,8.60
2023-03-02T08:29:56.871Z,8.85
2023-03-02T08:32:23.439Z,10.45
2023-03-02T08:34:51.827Z,9.35
2023-03-02T08:37:19.321Z,11.10
2023-03-02T08:39:45.912Z,22.23
2023-03-02T08:42:12.362Z,12.30
2023-03-02T08:44:38.778Z,10.30
2023-03-02T08:47:05.238Z,20.77
2023-03-02T08:49:31.714Z,14.52
2023-03-02T08:51:58.916Z,9.43
2023-03-02T08:54:25.402Z,7.93
2023-03-02T08:56:51.901Z,9.70
2023-03-02T08:59:18.528Z,8.65
2023-03-02T09:01:45.155Z,9.10
2023-03-02T09:04:11.789Z,7.75
2023-03-02T09:06:39.569Z,8.40
2023-03-02T09:09:06.498Z,8.52
2023-03-02T09:11:33.561Z,7.47
2023-03-02T09:14:00.383Z,8.75
2023-03-02T09:16:26.892Z,8.15
2023-03-02T09:18:54.093Z,8.50
2023-03-02T09:21:20.671Z,8.52
2023-03-02T09:23:47.206Z,8.85
2023-03-02T09:26:13.752Z,9.20
2023-03-02T09:28:40.235Z,10.13
2023-03-02T09:31:08.193Z,9.57
2023-03-02T09:33:34.863Z,9.50
2023-03-02T09:36:04.814Z,9.68
2023-03-02T09:38:31.233Z,10.43
2023-03-02T09:41:24.024Z,10.43
2023-03-02T09:44:09.217Z,10.98
2023-03-02T09:46:38.286Z,8.77
2023-03-02T09:49:12.630Z,9.23
2023-03-02T09:51:41.961Z,10.30
2023-03-02T09:54:16.121Z,10.35
2023-03-02T09:56:44.261Z,10.23
2023-03-02T09:59:49.351Z,10.93
2023-03-02T10:02:21.637Z,11.30
2023-03-02T10:04:50.479Z,11.25
2023-03-02T10:07:19.843Z,11.43
2023-03-02T10:09:46.491Z,9.60
2023-03-02T10:12:12.910Z,10.63
2023-03-02T10:14:43.126Z,12.50
2023-03-02T10:17:09.577Z,10.45
2023-03-02T10:19:44.342Z,10.20
2023-03-02T10:22:18.192Z,11.35
2023-03-02T10:24:47.639Z,11.52
2023-03-02T10:27:21.339Z,10.88
2023-03-02T10:30:02.659Z,10.43
2023-03-02T10:32:32.237Z,10.75
2023-03-02T10:34:59.471Z,10.70
2023-03-02T10:37:28.940Z,10.02
2023-03-02T10:39:55.708Z,9.93
2023-03-02T10:42:34.226Z,10.88
2023-03-02T10:45:12.942Z,10.75
2023-03-02T10:47:39.592Z,10.68
2023-03-02T10:50:20.870Z,10.60
2023-03-02T10:52:59.716Z,9.65
2023-03-02T10:55:27.079Z,9.15
2023-03-02T10:58:01.072Z,9.15
2023-03-02T11:00:29.304Z,9.68
2023-03-02T11:02:56.913Z,10.32
2023-03-02T11:05:27.645Z,9.75
2023-03-02T11:08:04.956Z,9.45
2023-03-02T11:10:36.701Z,9.30
2023-03-02T11:13:15.781Z,8.73
2023-03-02T11:15:47.045Z,7.95
2023-03-02T11:18:25.146Z,7.57
2023-03-02T11:21:05.991Z,7.68
2023-03-02T11:23:38.221Z,8.77
2023-03-02T11:26:27.792Z,8.10
2023-03-02T11:28:59.880Z,7.28
2023-03-02T11:31:41.715Z,7.57
2023-03-02T11:34:20.189Z,8.18
2023-03-02T11:37:09.785Z,8.60
2023-03-02T11:39:58.925Z,7.95
2023-03-02T11:42:30.723Z,8.18
2023-03-02T11:47:23.966Z,9.15
2023-03-02T11:49:55.175Z,8.40
2023-03-02T11:52:23.244Z,8.20
2023-03-02T11:54:53.759Z,8.52
2023-03-02T11:57:33.394Z,7.97
2023-03-02T12:00:00.694Z,8.60
2023-03-02T12:02:28.570Z,9.93
2023-03-02T12:05:02.592Z,8.65
2023-03-02T12:07:29.083Z,9.25
2023-03-02T12:09:58.283Z,9.48
2023-03-02T12:12:24.698Z,8.18
2023-03-02T12:14:52.522Z,9.05
2023-03-02T12:17:19.277Z,8.77
2023-03-02T12:19:45.833Z,8.30
2023-03-02T12:22:14.691Z,8.30
2023-03-02T12:24:42.424Z,7.47
2023-03-02T12:27:20.919Z,9.07
2023-03-02T12:29:52.122Z,10.80
2023-03-02T13:08:48.627Z,8.57
2023-03-02T13:31:49.809Z,8.85
2023-03-02T13:34:23.849Z,8.45
2023-03-02T13:36:50.749Z,7.65
2023-03-02T13:39:19.769Z,6.63
2023-03-02T13:41:56.758Z,8.85
2023-03-02T13:44:30.684Z,10.02
2023-03-02T13:46:57.444Z,9.75
2023-03-02T13:49:32.502Z,7.22
2023-03-02T13:52:03.604Z,6.22
2023-03-02T13:54:31.437Z,6.00
2023-03-02T13:56:59.201Z,5.38
2023-03-02T13:59:25.960Z,7.80
2023-03-02T14:01:52.631Z,6.35
2023-03-02T14:04:21.702Z,8.23
2023-03-02T14:06:48.269Z,9.80
2023-03-02T14:09:15.025Z,7.30
2023-03-02T14:11:43.571Z,7.90
2023-03-02T14:14:15.895Z,8.75
2023-03-02T14:16:42.407Z,8.60
2023-03-02T14:19:13.800Z,9.18
2023-03-02T14:21:40.396Z,8.38
2023-03-02T14:24:07.135Z,9.30
2023-03-02T14:26:35.048Z,9.65
2023-03-02T14:29:24.896Z,9.85
2023-03-02T14:31:51.891Z,9.20
2023-03-02T14:34:18.560Z,10.20
2023-03-02T14:36:47.010Z,8.88
2023-03-02T14:39:24.094Z,9.60
2023-03-02T14:41:54.212Z,9.95
2023-03-02T14:44:21.167Z,11.10
2023-03-02T14:46:47.725Z,11.35
2023-03-02T14:49:14.280Z,12.35
2023-03-02T14:51:41.835Z,13.18
2023-03-02T14:54:11.051Z,13.48
2023-03-02T14:56:37.612Z,14.25
2023-03-02T14:59:04.199Z,135.30
2023-03-02T15:01:31.944Z,108.95
2023-03-02T15:03:58.703Z,49.72
2023-03-02T15:06:32.228Z,52.28
2023-03-02T15:08:59.976Z,276.52
2023-03-02T15:11:27.384Z,95.28
2023-03-02T15:13:54.432Z,47.35
2023-03-02T15:16:21.159Z,51.03
2023-03-02T15:18:51.436Z,78.85
2023-03-02T15:21:22.150Z,237.10
2023-03-02T15:23:48.911Z,155.43
2023-03-02T15:26:15.777Z,135.82
2023-03-02T15:28:42.609Z,306.48
2023-03-02T15:31:10.018Z,307.55
2023-03-02T15:33:36.992Z,122.57
2023-03-02T15:36:06.284Z,70.85
2023-03-02T15:38:33.326Z,30.17
2023-03-02T15:41:04.007Z,20.48
2023-03-02T15:43:30.481Z,21.75
2023-03-02T15:45:57.061Z,20.92
2023-03-02T15:48:23.621Z,20.90
2023-03-02T15:51:00.689Z,19.08
2023-03-02T15:53:28.505Z,20.60
2023-03-02T15:55:55.352Z,22.38
2023-03-02T15:58:24.509Z,22.45
2023-03-02T16:00:53.602Z,21.50
2023-03-02T16:03:20.173Z,26.30
2023-03-02T16:05:46.906Z,22.02
2023-03-02T16:08:13.434Z,24.80
2023-03-02T16:10:42.918Z,29.88
2023-03-02T16:13:10.110Z,21.48
2023-03-02T16:15:37.242Z,21.08
2023-03-02T16:18:03.736Z,24.85
2023-03-02T16:20:30.232Z,26.25
2023-03-02T16:22:57.787Z,28.20
2023-03-02T16:25:24.916Z,25.13
2023-03-02T16:27:53.210Z,21.67
2023-03-02T16:30:22.766Z,23.85
2023-03-02T16:32:49.820Z,24.65
2023-03-02T16:35:16.328Z,24.42
2023-03-02T16:37:44.581Z,23.98
2023-03-02T16:40:11.514Z,26.88
2023-03-02T16:42:37.941Z,26.75
2023-03-02T16:45:05.018Z,23.33
2023-03-02T16:47:31.427Z,23.30
2023-03-02T16:49:58.053Z,24.73
2023-03-02T16:52:24.583Z,23.88
2023-03-02T16:54:51.131Z,24.02
2023-03-02T16:57:17.918Z,24.25
2023-03-02T16:59:44.446Z,24.38
2023-03-02T17:02:11.560Z,24.40
2023-03-02T17:04:38.133Z,23.38
2023-03-02T17:07:05.820Z,23.45
2023-03-02T17:09:34.155Z,26.95
2023-03-02T17:12:00.636Z,22.77
2023-03-02T17:14:27.596Z,25.38
2023-03-02T17:16:54.713Z,251.80
2023-03-02T17:19:21.625Z,322.60
2023-03-02T17:21:48.158Z,277.15
2023-03-02T17:24:14.693Z,317.13
2023-03-02T17:26:41.219Z,226.10
2023-03-02T17:29:08.166Z,183.85
2023-03-02T17:31:34.695Z,93.70
2023-03-02T17:34:01.208Z,120.00
2023-03-02T17:36:27.722Z,124.00
2023-03-02T17:38:54.251Z,63.35
2023-03-02T17:41:20.686Z,39.97
2023-03-02T17:43:47.184Z,42.90
2023-03-02T17:46:20.424Z,32.05
2023-03-02T17:48:47.708Z,32.75
2023-03-02T17:51:17.040Z,27.52
2023-03-02T17:53:44.569Z,29.70
2023-03-02T17:56:12.049Z,25.75
2023-03-02T17:58:44.926Z,26.30
2023-03-02T18:01:12.705Z,26.80
2023-03-02T18:03:39.336Z,24.75
2023-03-02T18:06:06.033Z,24.27
2023-03-02T18:08:33.260Z,25.67
2023-03-02T18:11:00.213Z,25.40
2023-03-02T18:13:26.656Z,29.15
2023-03-02T18:15:53.098Z,30.63
2023-03-02T18:18:19.588Z,25.52
2023-03-02T18:20:46.133Z,25.50
2023-03-02T18:23:12.854Z,27.83
2023-03-02T18:25:39.355Z,27.35
2023-03-02T18:28:05.951Z,26.67
2023-03-02T18:30:32.364Z,26.17
2023-03-02T18:32:58.926Z,25.02
2023-03-02T18:35:25.524Z,27.20
2023-03-02T18:37:52.224Z,26.10
2023-03-02T18:40:18.917Z,27.63
2023-03-02T18:42:45.446Z,28.27
2023-03-02T18:45:18.011Z,28.42
2023-03-02T18:47:46.162Z,29.05
2023-03-02T18:50:14.613Z,28.83
2023-03-02T18:52:41.169Z,34.95
2023-03-02T18:55:08.986Z,31.98
2023-03-02T18:57:36.132Z,29.88
2023-03-02T19:00:03.010Z,28.77
2023-03-02T19:02:29.836Z,28.52
2023-03-02T19:04:56.469Z,29.88
2023-03-02T19:07:22.890Z,29.00
2023-03-02T19:09:49.314Z,31.10
2023-03-02T19:12:15.841Z,29.98
2023-03-02T19:14:42.796Z,30.02
2023-03-02T19:17:09.536Z,27.55
2023-03-02T19:19:35.960Z,29.23
2023-03-02T19:22:02.576Z,30.70
2023-03-02T19:24:29.046Z,30.95
2023-03-02T19:26:55.461Z,28.98
2023-03-02T19:29:23.248Z,30.80
2023-03-02T19:31:49.805Z,30.67
2023-03-02T19:34:16.506Z,32.28
2023-03-02T19:36:43.807Z,31.55
2023-03-02T19:39:10.302Z,31.42
2023-03-02T19:41:36.826Z,31.27
2023-03-02T19:44:03.569Z,31.10
2023-03-02T19:46:29.989Z,28.88
2023-03-02T19:48:56.500Z,30.85
2023-03-02T19:51:22.919Z,29.05
2023-03-02T19:53:49.504Z,30.25
2023-03-02T19:56:16.439Z,29.40
2023-03-02T19:58:53.507Z,30.15
2023-03-02T20:01:21.860Z,30.08
2023-03-02T20:03:49.507Z,28.75
2023-03-02T20:06:16.322Z,29.33
2023-03-02T20:08:42.812Z,30.33
2023-03-02T20:11:09.478Z,30.13
2023-03-02T20:13:36.049Z,32.22
2023-03-02T20:16:03.129Z,32.15
2023-03-02T20:18:29.613Z,39.05
2023-03-02T20:20:56.112Z,32.63
2023-03-02T20:23:22.681Z,33.10
2023-03-02T20:25:49.242Z,31.65
2023-03-02T20:28:16.773Z,33.17
2023-03-02T20:30:46.299Z,34.05
2023-03-02T20:33:13.660Z,34.70
2023-03-02T20:35:41.216Z,34.95
2023-03-02T20:38:14.259Z,36.25
2023-03-02T20:40:40.787Z,35.65
2023-03-02T20:43:07.384Z,33.47
2023-03-02T20:45:33.819Z,35.05
2023-03-02T20:48:00.372Z,32.45
2023-03-02T20:50:28.887Z,36.38
2023-03-02T20:52:55.446Z,31.65
2023-03-02T20:55:21.981Z,32.92
2023-03-02T20:57:48.693Z,31.77
2023-03-02T21:00:16.896Z,32.40
2023-03-02T21:02:44.319Z,33.55
2023-03-02T21:05:12.168Z,31.02
2023-03-02T21:07:38.657Z,32.47
2023-03-02T21:10:06.409Z,30.85
2023-03-02T21:12:33.327Z,31.30
2023-03-02T21:15:02.037Z,31.00
2023-03-02T21:17:30.774Z,30.67
2023-03-02T21:19:58.220Z,31.23
2023-03-02T21:22:25.085Z,30.00
2023-03-02T21:24:53.002Z,32.03
2023-03-02T21:27:19.711Z,28.95
2023-03-02T21:29:46.286Z,28.52
2023-03-02T21:32:12.748Z,28.23
2023-03-02T21:34:39.262Z,29.92
2023-03-02T21:37:05.947Z,27.92
2023-03-02T21:39:32.696Z,28.25
2023-03-02T21:41:59.306Z,28.40
2023-03-02T21:44:25.984Z,28.77
2023-03-02T21:46:52.410Z,27.90
2023-03-02T21:49:20.172Z,27.27
2023-03-02T21:51:48.987Z,26.80
2023-03-02T21:54:16.366Z,27.58
2023-03-02T21:56:43.626Z,28.30
2023-03-02T21:59:10.850Z,28.60
2023-03-02T22:01:37.356Z,28.30
2023-03-02T22:04:04.074Z,28.75
2023-03-02T22:06:32.063Z,31.17
2023-03-02T22:08:58.993Z,27.27
2023-03-02T22:11:26.822Z,29.23
2023-03-02T22:13:55.318Z,30.60
2023-03-02T22:16:28.858Z,31.40
2023-03-02T22:18:59.323Z,31.30
2023-03-02T22:21:37.400Z,31.10
2023-03-02T22:24:06.791Z,36.20
2023-03-02T22:26:35.452Z,34.88
2023-03-02T22:29:14.531Z,32.35
2023-03-02T22:31:43.239Z,31.83
2023-03-02T22:34:13.424Z,31.52
2023-03-02T22:36:39.910Z,30.17
2023-03-02T22:39:10.921Z,31.35
2023-03-02T22:41:37.413Z,22.57
2023-03-02T22:44:09.305Z,31.52
2023-03-02T22:49:02.168Z,32.17
2023-03-02T22:51:30.449Z,31.52
2023-03-02T22:53:58.580Z,33.42
2023-03-02T22:56:29.775Z,32.88
2023-03-02T22:58:58.192Z,24.13
2023-03-02T23:01:29.596Z,31.45
2023-03-02T23:04:13.515Z,31.98
2023-03-02T23:06:45.289Z,32.33
2023-03-02T23:09:12.977Z,32.58
2023-03-02T23:11:40.973Z,31.15
2023-03-02T23:14:27.722Z,32.22
2023-03-02T23:16:58.591Z,33.35
2023-03-02T23:19:26.301Z,35.20
2023-03-02T23:21:52.982Z,30.45
2023-03-02T23:24:20.949Z,32.30
2023-03-02T23:26:48.127Z,32.58
2023-03-02T23:29:14.661Z,32.10
2023-03-02T23:31:41.164Z,30.40
2023-03-02T23:34:07.723Z,29.92
2023-03-02T23:36:34.279Z,29.77
2023-03-02T23:39:00.929Z,29.05
2023-03-02T23:41:27.442Z,32.60
2023-03-02T23:43:53.980Z,31.08
2023-03-02T23:46:20.722Z,29.70
2023-03-02T23:48:48.066Z,28.48
2023-03-02T23:51:15.003Z,30.85
2023-03-02T23:53:41.670Z,29.33
2023-03-02T23:56:08.216Z,30.42
2023-03-02T23:58:34.781Z,30.67
